KTN weather

Ketchikan International Airport
Ketchikan, Alaska, United States

Public forecast

Using degrees Fahrenheit for public forecast. Weather courtesy of forecast.io.

Current aviation weather report (METAR) for Ketchikan International Airport

Retrieved 2019/11/19 08:53 UTC (1 hour ago):

PAKT 190853Z AUTO 32006KT 10SM OVC038 06/04 A3003

Aviation forecast (TAF) for Ketchikan International Airport

Retrieved 2019/11/19 06:39 UTC (3 hours ago):

TAF PAKT 190535Z 1906/2006 VRB03KT P6SM SCT020 BKN035 TEMPO 1911/1915 SCT008 BKN035 AMD LTD TO CLD VIS AND WIND 1906/1915